Beloeil, Belgium
Current Conditions -  °F | °C
As of 5:25 AM on Sunday 26 Oct 2014 (Local Time) from EBCV Reporting Station
Overcast Overcast  
Wind Chill: 54°   Ceiling: 3900
Heat Index: 54°   Visibility: 6mi
Dew Point: 50°   Wind: 6mph
Humidity: 88%   Direction: 200°SSW
Pressure: 30.24"   Gusts: NA
Location:  50.55°N, 3.73°E
Report Text: EBCV 260325Z AUTO 20005KT 9999 OVC039/// 12/10 Q1024 BLU
Loading
Personal Weather Stations






























Interactive Weather Map
Tropical Storm Tracking
New forecast layout! Learn more

10-Day Weather Forecast

Advertisements
Track Severe Weather on mobile